createdAt,value
2018-09-18T00:01:20.282Z,71.08
2018-09-18T00:03:48.542Z,70.84
2018-09-18T00:06:16.778Z,70.23
2018-09-18T00:08:45.009Z,70.24
2018-09-18T00:11:13.216Z,70.62
2018-09-18T00:13:41.466Z,69.89
2018-09-18T00:16:09.730Z,69.90
2018-09-18T00:18:38.085Z,70.53
2018-09-18T00:21:06.282Z,70.75
2018-09-18T00:23:34.477Z,70.79
2018-09-18T00:26:02.663Z,70.79
2018-09-18T00:28:31.052Z,70.88
2018-09-18T00:30:59.213Z,70.42
2018-09-18T00:33:27.397Z,71.53
2018-09-18T00:35:55.718Z,71.74
2018-09-18T00:38:23.985Z,71.40
2018-09-18T00:40:52.222Z,71.78
2018-09-18T00:43:20.388Z,72.14
2018-09-18T00:45:48.863Z,71.70
2018-09-18T00:48:17.091Z,72.22
2018-09-18T00:50:45.451Z,72.75
2018-09-18T00:53:13.853Z,72.64
2018-09-18T00:55:42.110Z,72.20
2018-09-18T00:58:10.388Z,72.37
2018-09-18T01:00:38.556Z,72.73
2018-09-18T01:03:06.731Z,72.21
2018-09-18T01:05:35.042Z,71.97
2018-09-18T01:08:03.229Z,72.42
2018-09-18T01:10:31.471Z,72.72
2018-09-18T01:12:59.716Z,72.47
2018-09-18T01:15:27.958Z,72.42
2018-09-18T01:17:56.120Z,72.59
2018-09-18T01:20:24.325Z,72.09
2018-09-18T01:22:53.434Z,72.81
2018-09-18T01:25:21.778Z,72.66
2018-09-18T01:27:50.150Z,72.94
2018-09-18T01:30:18.361Z,73.29
2018-09-18T01:32:46.676Z,72.64
2018-09-18T01:35:14.876Z,72.37
2018-09-18T01:37:43.131Z,71.95
2018-09-18T01:40:11.336Z,71.26
2018-09-18T01:42:39.539Z,70.90
2018-09-18T01:45:07.821Z,70.76
2018-09-18T01:47:36.198Z,70.68
2018-09-18T01:50:04.568Z,70.66
2018-09-18T01:52:32.845Z,70.65
2018-09-18T01:55:01.032Z,70.09
2018-09-18T01:57:29.252Z,70.05
2018-09-18T01:59:57.436Z,69.94
2018-09-18T02:02:25.644Z,69.58
2018-09-18T02:04:53.872Z,69.17
2018-09-18T02:07:22.251Z,69.09
2018-09-18T02:09:50.481Z,69.75
2018-09-18T02:12:18.634Z,69.67
2018-09-18T02:14:46.886Z,69.96
2018-09-18T02:17:15.164Z,69.73
2018-09-18T02:19:43.725Z,69.26
2018-09-18T02:22:12.005Z,69.42
2018-09-18T02:24:40.301Z,70.15
2018-09-18T02:27:08.512Z,70.10
2018-09-18T02:29:36.715Z,69.46
2018-09-18T02:32:04.915Z,70.09
2018-09-18T02:34:33.103Z,68.62
2018-09-18T02:37:01.366Z,68.81
2018-09-18T02:39:29.661Z,69.37
2018-09-18T02:41:57.869Z,68.55
2018-09-18T02:44:26.084Z,68.71
2018-09-18T02:46:54.286Z,69.12
2018-09-18T02:49:22.465Z,69.79
2018-09-18T02:51:51.038Z,69.28
2018-09-18T02:54:19.230Z,71.01
2018-09-18T02:56:47.424Z,71.07
2018-09-18T02:59:15.612Z,71.61
2018-09-18T03:01:43.916Z,71.71
2018-09-18T03:04:12.116Z,72.05
2018-09-18T03:06:40.305Z,72.76
2018-09-18T03:09:09.531Z,72.92
2018-09-18T03:11:37.896Z,72.90
2018-09-18T03:14:06.275Z,72.91
2018-09-18T03:16:34.539Z,73.02
2018-09-18T03:19:02.783Z,72.72
2018-09-18T03:21:31.055Z,72.08
2018-09-18T03:23:59.263Z,73.31
2018-09-18T03:26:27.606Z,73.05
2018-09-18T03:28:55.814Z,72.90
2018-09-18T03:31:24.009Z,73.11
2018-09-18T03:33:52.889Z,73.26
2018-09-18T03:36:21.085Z,73.32
2018-09-18T03:38:49.427Z,72.96
2018-09-18T03:41:18.451Z,72.77
2018-09-18T03:43:46.697Z,72.09
2018-09-18T03:46:14.937Z,72.05
2018-09-18T03:48:43.187Z,71.74
2018-09-18T03:51:11.399Z,71.73
2018-09-18T03:53:39.665Z,71.09
2018-09-18T03:56:08.059Z,71.40
2018-09-18T03:58:36.258Z,71.25
2018-09-18T04:01:04.633Z,71.05
2018-09-18T04:03:33.087Z,71.29
2018-09-18T04:06:01.457Z,71.02
2018-09-18T04:08:29.693Z,71.35
2018-09-18T04:10:58.061Z,71.05
2018-09-18T04:13:26.500Z,71.50
2018-09-18T04:15:54.903Z,70.86
2018-09-18T04:18:25.120Z,71.28
2018-09-18T04:20:53.478Z,71.05
2018-09-18T04:23:21.805Z,70.49
2018-09-18T04:25:50.192Z,70.06
2018-09-18T04:28:18.420Z,71.62
2018-09-18T04:30:46.744Z,72.05
2018-09-18T04:33:14.963Z,72.97
2018-09-18T04:35:43.130Z,73.67
2018-09-18T04:38:11.340Z,73.83
2018-09-18T04:40:39.593Z,74.14
2018-09-18T04:43:07.867Z,74.15
2018-09-18T04:45:36.060Z,74.13
2018-09-18T04:48:04.262Z,75.10
2018-09-18T04:50:32.621Z,74.46
2018-09-18T04:53:01.118Z,74.99
2018-09-18T04:55:29.340Z,74.80
2018-09-18T04:57:57.648Z,74.65
2018-09-18T05:00:25.953Z,74.12
2018-09-18T05:02:54.185Z,74.25
2018-09-18T05:05:22.406Z,74.26
2018-09-18T05:07:50.578Z,73.62
2018-09-18T05:10:18.796Z,72.55
2018-09-18T05:12:47.925Z,73.14
2018-09-18T05:15:16.263Z,72.97
2018-09-18T05:17:44.980Z,72.62
2018-09-18T05:20:13.259Z,72.64
2018-09-18T05:22:41.440Z,72.91
2018-09-18T05:25:09.690Z,71.87
2018-09-18T05:27:37.865Z,71.51
2018-09-18T05:30:06.155Z,71.28
2018-09-18T05:32:34.419Z,71.52
2018-09-18T05:35:02.765Z,71.00
2018-09-18T05:37:30.895Z,71.12
2018-09-18T05:39:59.137Z,70.65
2018-09-18T05:42:27.675Z,70.69
2018-09-18T05:44:55.869Z,70.10
2018-09-18T05:47:24.060Z,69.95
2018-09-18T05:49:52.401Z,69.85
2018-09-18T05:52:20.822Z,69.56
2018-09-18T05:54:49.051Z,68.75
2018-09-18T05:57:23.698Z,68.96
2018-09-18T05:59:52.131Z,68.96
2018-09-18T06:02:20.475Z,68.77
2018-09-18T06:04:48.618Z,69.25
2018-09-18T06:07:16.894Z,69.04
2018-09-18T06:09:45.232Z,68.51
2018-09-18T06:12:13.644Z,68.74
2018-09-18T06:14:42.074Z,68.10
2018-09-18T06:17:10.463Z,67.79
2018-09-18T06:19:38.764Z,67.39
2018-09-18T06:22:07.305Z,66.74
2018-09-18T06:24:35.738Z,66.04
2018-09-18T06:27:04.615Z,66.19
2018-09-18T06:29:32.952Z,65.68
2018-09-18T06:32:01.261Z,65.73
2018-09-18T06:34:29.542Z,65.11
2018-09-18T06:36:58.137Z,65.32
2018-09-18T06:39:26.408Z,65.18
2018-09-18T06:41:54.655Z,64.84
2018-09-18T06:44:22.946Z,64.56
2018-09-18T06:46:51.216Z,65.12
2018-09-18T06:49:19.778Z,64.91
2018-09-18T06:51:48.033Z,65.49
2018-09-18T06:54:16.378Z,64.85
2018-09-18T06:56:44.662Z,64.77
2018-09-18T06:59:13.645Z,64.41
2018-09-18T07:01:42.004Z,64.33
2018-09-18T07:04:10.579Z,64.20
2018-09-18T07:06:38.774Z,63.97
2018-09-18T07:09:08.322Z,63.59
2018-09-18T07:11:36.534Z,63.12
2018-09-18T07:14:04.916Z,63.34
2018-09-18T07:16:33.324Z,62.98
2018-09-18T07:19:01.772Z,62.88
2018-09-18T07:21:30.258Z,62.54
2018-09-18T07:23:58.748Z,62.53
2018-09-18T07:26:27.051Z,62.14
2018-09-18T07:28:55.320Z,62.64
2018-09-18T07:31:23.780Z,62.19
2018-09-18T07:33:52.809Z,61.42
2018-09-18T07:36:21.052Z,61.08
2018-09-18T07:38:49.639Z,61.25
2018-09-18T07:41:17.818Z,60.51
2018-09-18T07:43:46.136Z,60.13
2018-09-18T07:46:14.412Z,59.15
2018-09-18T07:48:42.834Z,59.15
2018-09-18T07:51:11.124Z,59.00
2018-09-18T07:53:39.497Z,58.57
2018-09-18T07:56:07.870Z,58.50
2018-09-18T07:58:36.161Z,58.39
2018-09-18T08:01:04.336Z,57.73
2018-09-18T08:03:32.649Z,58.19
2018-09-18T08:06:00.953Z,56.86
2018-09-18T08:08:29.151Z,57.03
2018-09-18T08:10:57.691Z,56.34
2018-09-18T08:13:26.123Z,57.10
2018-09-18T08:15:54.297Z,56.51
2018-09-18T08:18:22.498Z,56.33
2018-09-18T08:20:50.732Z,55.42
2018-09-18T08:23:19.001Z,54.49
2018-09-18T08:25:47.474Z,54.74
2018-09-18T08:28:15.685Z,54.24
2018-09-18T08:30:43.858Z,54.82
2018-09-18T08:33:12.323Z,54.13
2018-09-18T08:35:40.529Z,52.78
2018-09-18T08:38:08.797Z,53.16
2018-09-18T08:40:36.941Z,53.99
2018-09-18T08:43:05.167Z,54.42
2018-09-18T08:45:33.620Z,53.64
2018-09-18T08:48:01.827Z,54.42
2018-09-18T08:50:32.064Z,52.75
2018-09-18T08:53:00.325Z,52.40
2018-09-18T08:55:28.523Z,51.76
2018-09-18T08:57:56.866Z,52.02
2018-09-18T09:00:25.214Z,52.16
2018-09-18T09:02:53.617Z,51.67
2018-09-18T09:05:22.002Z,51.25
2018-09-18T09:07:50.332Z,51.80
2018-09-18T09:10:18.508Z,51.74
2018-09-18T09:12:47.009Z,51.59
2018-09-18T09:15:15.241Z,50.89
2018-09-18T09:17:43.479Z,50.23
2018-09-18T09:20:11.829Z,50.23
2018-09-18T09:22:40.104Z,49.92
2018-09-18T09:25:08.325Z,50.79
2018-09-18T09:27:36.722Z,50.30
2018-09-18T09:30:05.059Z,50.33
2018-09-18T09:32:33.485Z,49.73
2018-09-18T09:35:01.901Z,49.70
2018-09-18T09:37:30.174Z,49.94
2018-09-18T09:39:58.695Z,49.55
2018-09-18T09:42:27.131Z,50.26
2018-09-18T09:44:55.446Z,50.01
2018-09-18T09:47:24.365Z,49.58
2018-09-18T09:49:53.407Z,49.94
2018-09-18T09:52:21.783Z,49.29
2018-09-18T09:54:50.174Z,49.51
2018-09-18T09:57:18.525Z,48.29
2018-09-18T09:59:46.837Z,48.28
2018-09-18T10:02:17.611Z,47.47
2018-09-18T10:04:46.287Z,47.64
2018-09-18T10:07:14.843Z,47.32
2018-09-18T10:09:43.805Z,46.50
2018-09-18T10:12:11.966Z,46.64
2018-09-18T10:14:40.298Z,47.38
2018-09-18T10:17:09.171Z,45.86
2018-09-18T10:19:37.538Z,45.88
2018-09-18T10:22:05.877Z,46.19
2018-09-18T10:24:34.419Z,45.05
2018-09-18T10:27:02.898Z,44.51
2018-09-18T10:29:31.379Z,45.32
2018-09-18T10:31:59.857Z,45.54
2018-09-18T10:34:28.107Z,43.59
2018-09-18T10:36:56.694Z,43.92
2018-09-18T10:39:25.185Z,44.33
2018-09-18T10:41:54.530Z,43.49
2018-09-18T10:44:22.996Z,42.84
2018-09-18T10:46:51.339Z,43.02
2018-09-18T10:49:19.561Z,43.01
2018-09-18T10:51:47.816Z,42.31
2018-09-18T10:54:16.262Z,40.94
2018-09-18T10:56:44.712Z,40.78
2018-09-18T10:59:17.185Z,40.87
2018-09-18T11:01:45.438Z,40.84
2018-09-18T11:04:13.733Z,40.36
2018-09-18T11:06:41.965Z,38.89
2018-09-18T11:09:11.422Z,39.15
2018-09-18T11:11:40.808Z,38.67
2018-09-18T11:14:09.476Z,39.09
2018-09-18T11:16:37.843Z,39.06
2018-09-18T11:19:07.081Z,39.49
2018-09-18T11:21:40.829Z,38.42
2018-09-18T11:24:09.412Z,38.16
2018-09-18T11:26:39.085Z,38.01
2018-09-18T11:29:07.318Z,38.09
2018-09-18T11:31:37.998Z,38.73
2018-09-18T11:34:06.319Z,37.54
2018-09-18T11:36:37.775Z,37.39
2018-09-18T11:39:07.066Z,37.29
2018-09-18T11:41:35.415Z,36.60
2018-09-18T11:44:04.240Z,36.89
2018-09-18T11:46:39.696Z,37.11
2018-09-18T11:49:08.267Z,37.30
2018-09-18T11:51:36.698Z,37.60
2018-09-18T11:54:05.211Z,37.58
2018-09-18T11:56:33.613Z,37.08
2018-09-18T11:59:02.796Z,36.45
2018-09-18T12:01:32.397Z,35.53
2018-09-18T12:04:00.950Z,35.13
2018-09-18T12:06:29.409Z,35.55
2018-09-18T12:08:57.664Z,36.43
2018-09-18T12:11:26.026Z,36.11
2018-09-18T12:13:54.295Z,35.54
2018-09-18T12:16:23.136Z,35.31
2018-09-18T12:18:52.798Z,35.58
2018-09-18T12:21:21.542Z,35.09
2018-09-18T12:23:49.950Z,34.53
2018-09-18T12:26:18.888Z,35.61
2018-09-18T12:28:47.526Z,34.87
2018-09-18T12:31:16.235Z,33.99
2018-09-18T12:33:44.506Z,33.76
2018-09-18T12:36:12.752Z,33.97
2018-09-18T12:38:41.197Z,33.73
2018-09-18T12:41:09.495Z,32.53
2018-09-18T12:43:37.675Z,32.43
2018-09-18T12:46:06.105Z,33.14
2018-09-18T12:48:34.734Z,33.72
2018-09-18T12:51:03.235Z,32.57
2018-09-18T12:53:31.481Z,33.00
2018-09-18T12:56:00.046Z,32.40
2018-09-18T12:58:28.274Z,32.21
2018-09-18T13:00:56.764Z,33.19
2018-09-18T13:03:25.081Z,33.54
2018-09-18T13:05:53.624Z,33.93
2018-09-18T13:08:21.935Z,33.07
2018-09-18T13:10:50.317Z,32.31
2018-09-18T13:13:19.621Z,32.23
2018-09-18T13:15:48.408Z,32.91
2018-09-18T13:18:17.346Z,34.31
2018-09-18T13:20:45.629Z,33.60
2018-09-18T13:23:13.969Z,33.96
2018-09-18T13:25:43.100Z,32.75
2018-09-18T13:28:11.540Z,32.68
2018-09-18T13:30:41.377Z,33.12
2018-09-18T13:33:09.720Z,33.51
2018-09-18T13:35:37.972Z,33.39
2018-09-18T13:38:06.281Z,33.47
2018-09-18T13:40:34.599Z,32.19
2018-09-18T13:43:03.110Z,32.84
2018-09-18T13:45:31.446Z,32.87
2018-09-18T13:47:59.697Z,33.23
2018-09-18T13:50:27.917Z,32.69
2018-09-18T13:52:56.177Z,32.56
2018-09-18T13:55:24.591Z,31.48
2018-09-18T13:57:52.872Z,32.21
2018-09-18T14:00:21.183Z,31.77
2018-09-18T14:02:49.679Z,31.58
2018-09-18T14:05:18.373Z,31.69
2018-09-18T14:07:46.754Z,31.63
2018-09-18T14:10:16.146Z,31.06
2018-09-18T14:12:44.435Z,31.93
2018-09-18T14:15:12.833Z,30.80
2018-09-18T14:17:41.153Z,32.49
2018-09-18T14:20:09.536Z,31.85
2018-09-18T14:22:38.253Z,32.36
2018-09-18T14:25:06.623Z,32.57
2018-09-18T14:27:35.563Z,33.06
2018-09-18T14:30:04.164Z,32.76
2018-09-18T14:32:33.178Z,32.04
2018-09-18T14:35:01.487Z,32.09
2018-09-18T14:37:29.896Z,32.74
2018-09-18T14:39:58.889Z,33.05
2018-09-18T14:42:27.371Z,31.75
2018-09-18T14:44:55.627Z,32.37
2018-09-18T14:47:23.962Z,33.00
2018-09-18T14:49:52.353Z,31.84
2018-09-18T14:52:20.619Z,31.52
2018-09-18T14:54:49.070Z,32.26
2018-09-18T14:57:17.410Z,31.76
2018-09-18T14:59:45.712Z,31.88
2018-09-18T15:02:14.354Z,32.87
2018-09-18T15:04:42.948Z,32.33
2018-09-18T15:07:11.418Z,31.75
2018-09-18T15:09:40.190Z,32.33
2018-09-18T15:12:08.515Z,31.84
2018-09-18T15:14:37.088Z,31.39
2018-09-18T15:17:05.353Z,31.46
2018-09-18T15:19:34.284Z,30.63
2018-09-18T15:22:02.915Z,30.32
2018-09-18T15:24:32.097Z,30.94
2018-09-18T15:27:00.459Z,31.31
2018-09-18T15:29:29.116Z,30.84
2018-09-18T15:31:57.439Z,31.27
2018-09-18T15:34:25.734Z,31.42
2018-09-18T15:36:54.442Z,30.34
2018-09-18T15:39:22.928Z,30.41
2018-09-18T15:41:51.105Z,31.50
2018-09-18T15:44:19.660Z,31.31
2018-09-18T15:46:47.901Z,29.33
2018-09-18T15:49:16.543Z,31.16
2018-09-18T15:51:45.461Z,30.44
2018-09-18T15:54:13.717Z,30.73
2018-09-18T15:56:42.108Z,30.31
2018-09-18T15:59:10.548Z,30.15
2018-09-18T16:01:38.859Z,30.00
2018-09-18T16:04:07.207Z,29.96
2018-09-18T16:06:35.647Z,29.91
2018-09-18T16:09:05.397Z,29.86
2018-09-18T16:11:34.137Z,30.16
2018-09-18T16:14:02.484Z,29.57
2018-09-18T16:16:31.672Z,29.74
2018-09-18T16:18:59.898Z,30.44
2018-09-18T16:21:29.652Z,30.74
2018-09-18T16:23:57.920Z,31.17
2018-09-18T16:26:26.618Z,31.52
2018-09-18T16:28:58.016Z,31.06
2018-09-18T16:31:26.486Z,31.46
2018-09-18T16:33:54.790Z,32.21
2018-09-18T16:36:23.006Z,31.65
2018-09-18T16:38:51.472Z,32.30
2018-09-18T16:41:19.731Z,32.64
2018-09-18T16:43:48.258Z,33.32
2018-09-18T16:46:16.787Z,33.03
2018-09-18T16:48:45.513Z,33.66
2018-09-18T16:51:14.666Z,34.04
2018-09-18T16:53:42.921Z,34.07
2018-09-18T16:56:12.102Z,34.31
2018-09-18T16:58:40.489Z,34.75
2018-09-18T17:01:08.822Z,34.91
2018-09-18T17:03:37.062Z,34.91
2018-09-18T17:06:05.572Z,36.09
2018-09-18T17:08:33.960Z,36.37
2018-09-18T17:11:02.262Z,36.80
2018-09-18T17:13:30.718Z,36.83
2018-09-18T17:15:59.205Z,37.33
2018-09-18T17:18:27.858Z,37.53
2018-09-18T17:20:56.125Z,37.68
2018-09-18T17:23:24.458Z,38.11
2018-09-18T17:25:52.945Z,38.33
2018-09-18T17:28:22.099Z,39.00
2018-09-18T17:30:50.306Z,39.26
2018-09-18T17:33:18.638Z,39.47
2018-09-18T17:35:47.220Z,39.54
2018-09-18T17:38:15.880Z,40.14
2018-09-18T17:40:46.016Z,41.29
2018-09-18T17:43:17.675Z,41.41
2018-09-18T17:45:46.107Z,41.69
2018-09-18T17:48:17.320Z,42.05
2018-09-18T17:50:45.550Z,42.13
2018-09-18T17:53:13.849Z,42.18
2018-09-18T17:55:42.189Z,42.45
2018-09-18T17:58:10.515Z,42.70
2018-09-18T18:00:38.888Z,42.51
2018-09-18T18:03:07.260Z,42.95
2018-09-18T18:05:35.627Z,43.42
2018-09-18T18:08:03.961Z,43.05
2018-09-18T18:10:32.272Z,43.51
2018-09-18T18:13:00.537Z,43.65
2018-09-18T18:15:31.700Z,43.48
2018-09-18T18:18:00.413Z,43.93
2018-09-18T18:20:29.573Z,43.96
2018-09-18T18:22:57.842Z,44.59
2018-09-18T18:25:26.237Z,44.41
2018-09-18T18:27:54.558Z,44.76
2018-09-18T18:30:22.861Z,44.63
2018-09-18T18:32:51.157Z,45.25
2018-09-18T18:35:19.395Z,45.17
2018-09-18T18:37:47.622Z,45.12
2018-09-18T18:40:16.005Z,45.51
2018-09-18T18:42:44.316Z,45.53
2018-09-18T18:45:13.423Z,46.39
2018-09-18T18:47:42.105Z,45.94
2018-09-18T18:50:10.724Z,46.15
2018-09-18T18:52:39.190Z,46.23
2018-09-18T18:55:07.693Z,46.27
2018-09-18T18:57:36.622Z,45.30
2018-09-18T19:00:05.292Z,45.54
2018-09-18T19:02:33.731Z,46.29
2018-09-18T19:05:02.226Z,45.83
2018-09-18T19:07:33.005Z,44.58
2018-09-18T19:10:02.928Z,44.91
2018-09-18T19:12:32.736Z,45.30
2018-09-18T19:15:06.821Z,45.66
2018-09-18T19:17:37.873Z,46.09
2018-09-18T19:20:15.066Z,45.81
2018-09-18T19:22:52.484Z,45.78
2018-09-18T19:25:22.154Z,45.67
2018-09-18T19:27:50.854Z,46.38
2018-09-18T19:30:19.163Z,46.42
2018-09-18T19:32:47.473Z,46.33
2018-09-18T19:35:16.131Z,46.39
2018-09-18T19:37:44.909Z,46.84
2018-09-18T19:40:14.140Z,46.64
2018-09-18T19:42:43.077Z,46.93
2018-09-18T19:45:11.493Z,47.15
2018-09-18T19:47:40.349Z,47.27
2018-09-18T19:50:13.652Z,47.93
2018-09-18T19:52:42.015Z,47.83
2018-09-18T19:55:11.174Z,47.80
2018-09-18T19:57:40.487Z,47.52
2018-09-18T20:00:09.771Z,47.01
2018-09-18T20:02:38.324Z,46.95
2018-09-18T20:05:06.811Z,47.88
2018-09-18T20:07:35.681Z,48.07
2018-09-18T20:10:05.282Z,47.43
2018-09-18T20:12:34.477Z,47.64
2018-09-18T20:15:03.468Z,47.70
2018-09-18T20:17:34.801Z,47.26
2018-09-18T20:20:04.128Z,47.92
2018-09-18T20:22:32.553Z,48.44
2018-09-18T20:25:00.898Z,48.22
2018-09-18T20:27:29.211Z,48.33
2018-09-18T20:29:57.628Z,48.02
2018-09-18T20:32:26.242Z,47.71
2018-09-18T20:34:54.621Z,48.19
2018-09-18T20:37:22.918Z,48.54
2018-09-18T20:39:51.968Z,48.84
2018-09-18T20:42:20.291Z,48.62
2018-09-18T20:44:48.828Z,48.84
2018-09-18T20:47:17.100Z,49.48
2018-09-18T20:49:45.584Z,49.75
2018-09-18T20:52:13.821Z,50.43
2018-09-18T20:54:42.093Z,50.48
2018-09-18T20:57:10.352Z,50.33
2018-09-18T20:59:38.656Z,50.12
2018-09-18T21:02:07.115Z,50.06
2018-09-18T21:04:35.362Z,50.53
2018-09-18T21:07:03.662Z,50.19
2018-09-18T21:09:31.932Z,50.39
2018-09-18T21:12:00.266Z,50.41
2018-09-18T21:14:28.482Z,50.80
2018-09-18T21:16:56.756Z,51.58
2018-09-18T21:19:24.949Z,51.45
2018-09-18T21:21:53.285Z,51.56
2018-09-18T21:24:21.540Z,50.82
2018-09-18T21:26:49.782Z,50.98
2018-09-18T21:29:18.038Z,51.04
2018-09-18T21:31:46.244Z,51.54
2018-09-18T21:34:14.504Z,51.39
2018-09-18T21:36:42.745Z,51.43
2018-09-18T21:39:11.365Z,52.03
2018-09-18T21:41:39.633Z,51.57
2018-09-18T21:44:07.826Z,52.47
2018-09-18T21:46:36.001Z,52.47
2018-09-18T21:49:04.290Z,53.11
2018-09-18T21:51:32.662Z,53.43
2018-09-18T21:54:00.883Z,53.48
2018-09-18T21:56:29.255Z,53.64
2018-09-18T21:58:57.431Z,53.97
2018-09-18T22:01:25.655Z,54.53
2018-09-18T22:03:53.802Z,54.91
2018-09-18T22:06:22.551Z,55.19
2018-09-18T22:08:50.881Z,55.49
2018-09-18T22:11:19.262Z,54.79
2018-09-18T22:13:47.686Z,55.57
2018-09-18T22:16:15.849Z,56.09
2018-09-18T22:18:44.037Z,56.08
2018-09-18T22:21:12.248Z,56.14
2018-09-18T22:23:40.504Z,56.99
2018-09-18T22:26:08.618Z,56.42
2018-09-18T22:28:36.834Z,56.94
2018-09-18T22:31:05.103Z,57.81
2018-09-18T22:33:33.371Z,58.31
2018-09-18T22:36:01.613Z,58.19
2018-09-18T22:38:29.866Z,57.73
2018-09-18T22:40:57.987Z,58.06
2018-09-18T22:43:26.167Z,57.44
2018-09-18T22:46:01.264Z,58.44
2018-09-18T22:48:29.483Z,57.74
2018-09-18T22:50:57.857Z,58.41
2018-09-18T22:53:26.055Z,58.23
2018-09-18T22:55:54.289Z,58.77
2018-09-18T22:58:22.501Z,58.40
2018-09-18T23:00:50.680Z,58.49
2018-09-18T23:03:18.889Z,59.09
2018-09-18T23:05:47.023Z,59.20
2018-09-18T23:08:15.288Z,59.42
2018-09-18T23:10:43.447Z,59.09
2018-09-18T23:13:11.581Z,58.89
2018-09-18T23:15:39.769Z,59.35
2018-09-18T23:18:08.078Z,59.72
2018-09-18T23:20:36.313Z,59.81
2018-09-18T23:23:04.590Z,59.96
2018-09-18T23:25:32.758Z,59.55
2018-09-18T23:28:00.928Z,59.14
2018-09-18T23:30:29.068Z,58.71
2018-09-18T23:32:57.277Z,59.31
2018-09-18T23:35:25.486Z,59.90
2018-09-18T23:37:53.678Z,60.10
2018-09-18T23:40:21.877Z,60.53
2018-09-18T23:42:50.032Z,60.52
2018-09-18T23:45:18.386Z,60.43
2018-09-18T23:47:46.533Z,60.27
2018-09-18T23:50:14.868Z,61.20
2018-09-18T23:52:43.014Z,61.64
2018-09-18T23:55:11.323Z,62.18
2018-09-18T23:57:39.757Z,61.59
